sensor_id;sensor_type;location;lat;lon;timestamp;P1;durP1;ratioP1;P2;durP2;ratioP2
74213;SDS011;62576;55.694;37.494;2023-12-22T00:00:48;8.93;;;4.05;;
74213;SDS011;62576;55.694;37.494;2023-12-22T00:03:18;9.52;;;3.92;;
74213;SDS011;62576;55.694;37.494;2023-12-22T00:05:49;7.82;;;3.72;;
74213;SDS011;62576;55.694;37.494;2023-12-22T00:08:19;7.03;;;3.10;;
74213;SDS011;62576;55.694;37.494;2023-12-22T00:10:48;8.48;;;3.70;;
74213;SDS011;62576;55.694;37.494;2023-12-22T00:13:18;7.72;;;2.97;;
74213;SDS011;62576;55.694;37.494;2023-12-22T00:15:48;8.00;;;3.53;;
74213;SDS011;62576;55.694;37.494;2023-12-22T00:18:18;7.53;;;3.40;;
74213;SDS011;62576;55.694;37.494;2023-12-22T00:20:49;7.47;;;3.30;;
74213;SDS011;62576;55.694;37.494;2023-12-22T00:23:19;8.75;;;3.38;;
74213;SDS011;62576;55.694;37.494;2023-12-22T00:25:49;9.02;;;3.53;;
74213;SDS011;62576;55.694;37.494;2023-12-22T00:28:18;8.80;;;3.70;;
74213;SDS011;62576;55.694;37.494;2023-12-22T00:30:48;9.15;;;3.45;;
74213;SDS011;62576;55.694;37.494;2023-12-22T00:33:15;10.05;;;3.65;;
74213;SDS011;62576;55.694;37.494;2023-12-22T00:35:45;8.68;;;3.67;;
74213;SDS011;62576;55.694;37.494;2023-12-22T00:38:16;7.68;;;3.45;;
74213;SDS011;62576;55.694;37.494;2023-12-22T00:40:46;8.48;;;3.42;;
74213;SDS011;62576;55.694;37.494;2023-12-22T00:43:16;8.68;;;3.78;;
74213;SDS011;62576;55.694;37.494;2023-12-22T00:45:46;9.57;;;4.00;;
74213;SDS011;62576;55.694;37.494;2023-12-22T00:48:15;8.90;;;3.28;;
74213;SDS011;62576;55.694;37.494;2023-12-22T00:50:46;8.68;;;3.53;;
74213;SDS011;62576;55.694;37.494;2023-12-22T00:53:17;9.25;;;3.47;;
74213;SDS011;62576;55.694;37.494;2023-12-22T00:55:46;8.27;;;3.58;;
74213;SDS011;62576;55.694;37.494;2023-12-22T00:58:16;9.02;;;3.70;;
74213;SDS011;62576;55.694;37.494;2023-12-22T01:00:46;9.05;;;3.40;;
74213;SDS011;62576;55.694;37.494;2023-12-22T01:03:16;9.18;;;3.75;;
74213;SDS011;62576;55.694;37.494;2023-12-22T01:05:46;8.75;;;3.58;;
74213;SDS011;62576;55.694;37.494;2023-12-22T01:08:17;9.43;;;3.60;;
74213;SDS011;62576;55.694;37.494;2023-12-22T01:10:48;9.07;;;3.40;;
74213;SDS011;62576;55.694;37.494;2023-12-22T01:13:18;9.30;;;3.75;;
74213;SDS011;62576;55.694;37.494;2023-12-22T01:15:48;10.88;;;3.55;;
74213;SDS011;62576;55.694;37.494;2023-12-22T01:18:18;8.85;;;3.72;;
74213;SDS011;62576;55.694;37.494;2023-12-22T01:20:48;8.32;;;3.60;;
74213;SDS011;62576;55.694;37.494;2023-12-22T01:23:19;8.35;;;3.55;;
74213;SDS011;62576;55.694;37.494;2023-12-22T01:25:49;11.02;;;3.67;;
74213;SDS011;62576;55.694;37.494;2023-12-22T01:28:19;8.95;;;3.53;;
74213;SDS011;62576;55.694;37.494;2023-12-22T01:30:48;9.50;;;3.70;;
74213;SDS011;62576;55.694;37.494;2023-12-22T01:33:15;9.70;;;4.13;;
74213;SDS011;62576;55.694;37.494;2023-12-22T01:35:45;8.52;;;3.75;;
74213;SDS011;62576;55.694;37.494;2023-12-22T01:38:15;9.63;;;3.60;;
74213;SDS011;62576;55.694;37.494;2023-12-22T01:40:46;10.30;;;3.38;;
74213;SDS011;62576;55.694;37.494;2023-12-22T01:43:16;7.43;;;3.35;;
74213;SDS011;62576;55.694;37.494;2023-12-22T01:45:50;7.70;;;3.33;;
74213;SDS011;62576;55.694;37.494;2023-12-22T01:48:21;11.45;;;3.90;;
74213;SDS011;62576;55.694;37.494;2023-12-22T01:50:51;9.18;;;3.72;;
74213;SDS011;62576;55.694;37.494;2023-12-22T01:53:22;9.95;;;3.88;;
74213;SDS011;62576;55.694;37.494;2023-12-22T01:55:55;9.10;;;4.03;;
74213;SDS011;62576;55.694;37.494;2023-12-22T01:58:25;11.20;;;4.15;;
74213;SDS011;62576;55.694;37.494;2023-12-22T02:00:55;8.43;;;3.88;;
74213;SDS011;62576;55.694;37.494;2023-12-22T02:03:26;9.95;;;4.07;;
74213;SDS011;62576;55.694;37.494;2023-12-22T02:05:56;10.88;;;4.38;;
74213;SDS011;62576;55.694;37.494;2023-12-22T02:08:26;10.25;;;4.40;;
74213;SDS011;62576;55.694;37.494;2023-12-22T02:10:58;9.40;;;4.10;;
74213;SDS011;62576;55.694;37.494;2023-12-22T02:13:25;11.30;;;4.72;;
74213;SDS011;62576;55.694;37.494;2023-12-22T02:15:59;11.70;;;4.63;;
74213;SDS011;62576;55.694;37.494;2023-12-22T02:18:31;8.48;;;3.38;;
74213;SDS011;62576;55.694;37.494;2023-12-22T02:21:02;10.90;;;4.28;;
74213;SDS011;62576;55.694;37.494;2023-12-22T02:23:33;10.23;;;4.15;;
74213;SDS011;62576;55.694;37.494;2023-12-22T02:26:06;9.80;;;3.92;;
74213;SDS011;62576;55.694;37.494;2023-12-22T02:28:36;15.82;;;4.30;;
74213;SDS011;62576;55.694;37.494;2023-12-22T02:31:09;11.95;;;4.60;;
74213;SDS011;62576;55.694;37.494;2023-12-22T02:33:40;11.25;;;4.53;;
74213;SDS011;62576;55.694;37.494;2023-12-22T02:36:10;12.20;;;4.20;;
74213;SDS011;62576;55.694;37.494;2023-12-22T02:38:42;12.07;;;4.45;;
74213;SDS011;62576;55.694;37.494;2023-12-22T02:41:12;10.95;;;4.10;;
74213;SDS011;62576;55.694;37.494;2023-12-22T02:43:42;9.90;;;3.65;;
74213;SDS011;62576;55.694;37.494;2023-12-22T02:46:15;10.05;;;4.18;;
74213;SDS011;62576;55.694;37.494;2023-12-22T02:48:44;10.20;;;3.92;;
74213;SDS011;62576;55.694;37.494;2023-12-22T02:51:14;9.27;;;4.15;;
74213;SDS011;62576;55.694;37.494;2023-12-22T02:53:46;10.65;;;4.70;;
74213;SDS011;62576;55.694;37.494;2023-12-22T02:56:15;11.02;;;4.30;;
74213;SDS011;62576;55.694;37.494;2023-12-22T02:58:45;10.68;;;4.78;;
74213;SDS011;62576;55.694;37.494;2023-12-22T03:01:15;11.13;;;4.45;;
74213;SDS011;62576;55.694;37.494;2023-12-22T03:03:45;13.23;;;4.63;;
74213;SDS011;62576;55.694;37.494;2023-12-22T03:06:14;15.82;;;4.20;;
74213;SDS011;62576;55.694;37.494;2023-12-22T03:08:46;11.15;;;4.40;;
74213;SDS011;62576;55.694;37.494;2023-12-22T03:11:15;10.88;;;4.90;;
74213;SDS011;62576;55.694;37.494;2023-12-22T03:13:45;16.25;;;5.50;;
74213;SDS011;62576;55.694;37.494;2023-12-22T03:16:16;12.23;;;4.07;;
74213;SDS011;62576;55.694;37.494;2023-12-22T03:18:46;10.95;;;4.93;;
74213;SDS011;62576;55.694;37.494;2023-12-22T03:21:16;10.98;;;4.20;;
74213;SDS011;62576;55.694;37.494;2023-12-22T03:23:48;12.27;;;5.00;;
74213;SDS011;62576;55.694;37.494;2023-12-22T03:26:18;12.68;;;4.50;;
74213;SDS011;62576;55.694;37.494;2023-12-22T03:28:48;12.82;;;4.65;;
74213;SDS011;62576;55.694;37.494;2023-12-22T03:31:18;12.77;;;4.78;;
74213;SDS011;62576;55.694;37.494;2023-12-22T03:33:44;11.65;;;4.63;;
74213;SDS011;62576;55.694;37.494;2023-12-22T03:36:14;10.43;;;4.30;;
74213;SDS011;62576;55.694;37.494;2023-12-22T03:38:44;12.80;;;4.53;;
74213;SDS011;62576;55.694;37.494;2023-12-22T03:41:15;9.57;;;3.95;;
74213;SDS011;62576;55.694;37.494;2023-12-22T03:43:45;16.00;;;5.40;;
74213;SDS011;62576;55.694;37.494;2023-12-22T03:46:15;12.25;;;4.65;;
74213;SDS011;62576;55.694;37.494;2023-12-22T03:48:44;12.25;;;4.90;;
74213;SDS011;62576;55.694;37.494;2023-12-22T03:51:14;14.90;;;5.65;;
74213;SDS011;62576;55.694;37.494;2023-12-22T03:53:44;13.10;;;5.03;;
74213;SDS011;62576;55.694;37.494;2023-12-22T03:56:16;13.68;;;5.38;;
74213;SDS011;62576;55.694;37.494;2023-12-22T03:58:47;12.60;;;5.35;;
74213;SDS011;62576;55.694;37.494;2023-12-22T04:01:17;14.15;;;4.50;;
74213;SDS011;62576;55.694;37.494;2023-12-22T04:03:46;13.75;;;4.85;;
74213;SDS011;62576;55.694;37.494;2023-12-22T04:06:16;12.85;;;4.72;;
74213;SDS011;62576;55.694;37.494;2023-12-22T04:08:46;13.60;;;4.97;;
74213;SDS011;62576;55.694;37.494;2023-12-22T04:11:17;10.95;;;4.32;;
74213;SDS011;62576;55.694;37.494;2023-12-22T04:13:47;11.63;;;5.10;;
74213;SDS011;62576;55.694;37.494;2023-12-22T04:16:17;11.15;;;4.80;;
74213;SDS011;62576;55.694;37.494;2023-12-22T04:18:47;10.10;;;3.92;;
74213;SDS011;62576;55.694;37.494;2023-12-22T04:21:16;11.00;;;4.88;;
74213;SDS011;62576;55.694;37.494;2023-12-22T04:23:46;11.32;;;5.13;;
74213;SDS011;62576;55.694;37.494;2023-12-22T04:26:18;9.68;;;4.50;;
74213;SDS011;62576;55.694;37.494;2023-12-22T04:28:48;11.48;;;4.68;;
74213;SDS011;62576;55.694;37.494;2023-12-22T04:31:17;11.18;;;4.50;;
74213;SDS011;62576;55.694;37.494;2023-12-22T04:33:44;12.30;;;4.55;;
74213;SDS011;62576;55.694;37.494;2023-12-22T04:36:14;7.75;;;3.38;;
74213;SDS011;62576;55.694;37.494;2023-12-22T04:38:44;12.15;;;4.55;;
74213;SDS011;62576;55.694;37.494;2023-12-22T04:41:14;12.85;;;4.90;;
74213;SDS011;62576;55.694;37.494;2023-12-22T04:43:45;11.25;;;4.22;;
74213;SDS011;62576;55.694;37.494;2023-12-22T04:46:14;9.63;;;4.18;;
74213;SDS011;62576;55.694;37.494;2023-12-22T04:48:44;12.23;;;4.95;;
74213;SDS011;62576;55.694;37.494;2023-12-22T04:51:14;13.45;;;5.22;;
74213;SDS011;62576;55.694;37.494;2023-12-22T04:53:44;12.60;;;4.97;;
74213;SDS011;62576;55.694;37.494;2023-12-22T04:56:14;10.02;;;4.70;;
74213;SDS011;62576;55.694;37.494;2023-12-22T04:58:45;12.25;;;4.72;;
74213;SDS011;62576;55.694;37.494;2023-12-22T05:01:15;13.02;;;4.93;;
74213;SDS011;62576;55.694;37.494;2023-12-22T05:03:46;12.88;;;5.00;;
74213;SDS011;62576;55.694;37.494;2023-12-22T05:06:16;12.90;;;5.00;;
74213;SDS011;62576;55.694;37.494;2023-12-22T05:08:45;11.15;;;5.07;;
74213;SDS011;62576;55.694;37.494;2023-12-22T05:11:15;10.38;;;4.10;;
74213;SDS011;62576;55.694;37.494;2023-12-22T05:13:47;11.20;;;5.30;;
74213;SDS011;62576;55.694;37.494;2023-12-22T05:16:16;10.27;;;4.60;;
74213;SDS011;62576;55.694;37.494;2023-12-22T05:18:46;13.85;;;4.95;;
74213;SDS011;62576;55.694;37.494;2023-12-22T05:21:16;11.30;;;5.28;;
74213;SDS011;62576;55.694;37.494;2023-12-22T05:23:46;14.38;;;5.15;;
74213;SDS011;62576;55.694;37.494;2023-12-22T05:26:16;14.07;;;5.75;;
74213;SDS011;62576;55.694;37.494;2023-12-22T05:28:48;14.55;;;5.85;;
74213;SDS011;62576;55.694;37.494;2023-12-22T05:31:18;13.20;;;5.55;;
74213;SDS011;62576;55.694;37.494;2023-12-22T05:33:46;13.65;;;4.80;;
74213;SDS011;62576;55.694;37.494;2023-12-22T05:36:18;11.82;;;5.25;;
74213;SDS011;62576;55.694;37.494;2023-12-22T05:38:47;14.00;;;5.75;;
74213;SDS011;62576;55.694;37.494;2023-12-22T05:41:17;13.15;;;5.80;;
74213;SDS011;62576;55.694;37.494;2023-12-22T05:43:48;14.50;;;6.43;;
74213;SDS011;62576;55.694;37.494;2023-12-22T05:46:19;13.60;;;5.50;;
74213;SDS011;62576;55.694;37.494;2023-12-22T05:48:48;11.23;;;4.38;;
74213;SDS011;62576;55.694;37.494;2023-12-22T05:51:18;15.65;;;6.22;;
74213;SDS011;62576;55.694;37.494;2023-12-22T05:53:48;14.15;;;6.57;;
74213;SDS011;62576;55.694;37.494;2023-12-22T05:56:18;13.77;;;5.85;;
74213;SDS011;62576;55.694;37.494;2023-12-22T05:58:49;16.35;;;6.78;;
74213;SDS011;62576;55.694;37.494;2023-12-22T06:01:19;17.75;;;7.45;;
74213;SDS011;62576;55.694;37.494;2023-12-22T06:03:49;17.80;;;6.70;;
74213;SDS011;62576;55.694;37.494;2023-12-22T06:06:19;18.10;;;6.85;;
74213;SDS011;62576;55.694;37.494;2023-12-22T06:08:49;17.77;;;6.55;;
74213;SDS011;62576;55.694;37.494;2023-12-22T06:11:19;19.15;;;7.47;;
74213;SDS011;62576;55.694;37.494;2023-12-22T06:13:50;18.45;;;8.15;;
74213;SDS011;62576;55.694;37.494;2023-12-22T06:16:20;16.98;;;7.07;;
74213;SDS011;62576;55.694;37.494;2023-12-22T06:18:49;14.80;;;6.28;;
74213;SDS011;62576;55.694;37.494;2023-12-22T06:21:19;19.67;;;7.03;;
74213;SDS011;62576;55.694;37.494;2023-12-22T06:23:49;17.25;;;7.25;;
74213;SDS011;62576;55.694;37.494;2023-12-22T06:26:19;20.50;;;7.70;;
74213;SDS011;62576;55.694;37.494;2023-12-22T06:28:50;18.52;;;7.60;;
74213;SDS011;62576;55.694;37.494;2023-12-22T06:31:20;19.80;;;7.90;;
74213;SDS011;62576;55.694;37.494;2023-12-22T06:33:47;12.73;;;5.85;;
74213;SDS011;62576;55.694;37.494;2023-12-22T06:36:18;18.13;;;6.55;;
74213;SDS011;62576;55.694;37.494;2023-12-22T06:38:48;19.40;;;7.68;;
74213;SDS011;62576;55.694;37.494;2023-12-22T06:41:18;17.40;;;6.65;;
74213;SDS011;62576;55.694;37.494;2023-12-22T06:43:50;14.90;;;6.30;;
74213;SDS011;62576;55.694;37.494;2023-12-22T06:46:20;19.38;;;8.38;;
74213;SDS011;62576;55.694;37.494;2023-12-22T06:48:50;19.98;;;7.78;;
74213;SDS011;62576;55.694;37.494;2023-12-22T06:51:20;20.75;;;8.10;;
74213;SDS011;62576;55.694;37.494;2023-12-22T06:53:50;20.23;;;7.45;;
74213;SDS011;62576;55.694;37.494;2023-12-22T06:56:21;15.18;;;7.07;;
74213;SDS011;62576;55.694;37.494;2023-12-22T06:58:52;18.55;;;6.72;;
74213;SDS011;62576;55.694;37.494;2023-12-22T07:01:22;19.63;;;7.80;;
74213;SDS011;62576;55.694;37.494;2023-12-22T07:03:52;17.50;;;7.03;;
74213;SDS011;62576;55.694;37.494;2023-12-22T07:06:22;17.70;;;7.75;;
74213;SDS011;62576;55.694;37.494;2023-12-22T07:08:56;19.08;;;7.95;;
74213;SDS011;62576;55.694;37.494;2023-12-22T07:11:26;19.70;;;8.15;;
74213;SDS011;62576;55.694;37.494;2023-12-22T07:13:58;18.13;;;7.90;;
74213;SDS011;62576;55.694;37.494;2023-12-22T07:16:27;18.30;;;7.47;;
74213;SDS011;62576;55.694;37.494;2023-12-22T07:18:57;19.25;;;8.50;;
74213;SDS011;62576;55.694;37.494;2023-12-22T07:21:27;15.20;;;7.28;;
74213;SDS011;62576;55.694;37.494;2023-12-22T07:23:57;16.73;;;7.00;;
74213;SDS011;62576;55.694;37.494;2023-12-22T07:26:27;16.48;;;7.43;;
74213;SDS011;62576;55.694;37.494;2023-12-22T07:28:58;15.35;;;6.85;;
74213;SDS011;62576;55.694;37.494;2023-12-22T07:31:28;15.70;;;6.50;;
74213;SDS011;62576;55.694;37.494;2023-12-22T07:33:58;19.23;;;8.25;;
74213;SDS011;62576;55.694;37.494;2023-12-22T07:36:31;15.73;;;6.35;;
74213;SDS011;62576;55.694;37.494;2023-12-22T07:39:01;19.48;;;8.20;;
74213;SDS011;62576;55.694;37.494;2023-12-22T07:41:30;16.27;;;7.88;;
74213;SDS011;62576;55.694;37.494;2023-12-22T07:44:01;21.73;;;8.32;;
74213;SDS011;62576;55.694;37.494;2023-12-22T07:46:31;18.73;;;7.90;;
74213;SDS011;62576;55.694;37.494;2023-12-22T07:49:01;13.80;;;6.38;;
74213;SDS011;62576;55.694;37.494;2023-12-22T07:51:28;18.45;;;8.00;;
74213;SDS011;62576;55.694;37.494;2023-12-22T07:53:58;15.02;;;6.63;;
74213;SDS011;62576;55.694;37.494;2023-12-22T07:56:28;13.52;;;6.35;;
74213;SDS011;62576;55.694;37.494;2023-12-22T07:58:58;15.73;;;7.28;;
74213;SDS011;62576;55.694;37.494;2023-12-22T08:01:30;13.35;;;6.10;;
74213;SDS011;62576;55.694;37.494;2023-12-22T08:04:00;13.10;;;6.32;;
74213;SDS011;62576;55.694;37.494;2023-12-22T08:06:29;15.68;;;6.18;;
74213;SDS011;62576;55.694;37.494;2023-12-22T08:08:59;12.77;;;5.60;;
74213;SDS011;62576;55.694;37.494;2023-12-22T08:11:29;13.40;;;5.50;;
74213;SDS011;62576;55.694;37.494;2023-12-22T08:13:59;13.55;;;5.90;;
74213;SDS011;62576;55.694;37.494;2023-12-22T08:16:30;12.68;;;5.72;;
74213;SDS011;62576;55.694;37.494;2023-12-22T08:19:01;12.60;;;5.65;;
74213;SDS011;62576;55.694;37.494;2023-12-22T08:21:30;11.95;;;5.50;;
74213;SDS011;62576;55.694;37.494;2023-12-22T08:24:00;13.55;;;5.32;;
74213;SDS011;62576;55.694;37.494;2023-12-22T08:26:30;11.43;;;5.35;;
74213;SDS011;62576;55.694;37.494;2023-12-22T08:29:00;12.52;;;5.38;;
74213;SDS011;62576;55.694;37.494;2023-12-22T08:31:32;11.13;;;4.95;;
74213;SDS011;62576;55.694;37.494;2023-12-22T08:34:01;11.45;;;5.60;;
74213;SDS011;62576;55.694;37.494;2023-12-22T08:36:35;14.95;;;5.70;;
74213;SDS011;62576;55.694;37.494;2023-12-22T08:39:05;13.30;;;5.15;;
74213;SDS011;62576;55.694;37.494;2023-12-22T08:41:35;13.20;;;5.65;;
74213;SDS011;62576;55.694;37.494;2023-12-22T08:44:06;11.13;;;4.97;;
74213;SDS011;62576;55.694;37.494;2023-12-22T08:46:37;12.82;;;6.07;;
74213;SDS011;62576;55.694;37.494;2023-12-22T08:49:07;13.48;;;5.88;;
74213;SDS011;62576;55.694;37.494;2023-12-22T08:51:37;9.52;;;4.38;;
74213;SDS011;62576;55.694;37.494;2023-12-22T08:54:06;13.27;;;5.45;;
74213;SDS011;62576;55.694;37.494;2023-12-22T08:56:36;10.88;;;4.60;;
74213;SDS011;62576;55.694;37.494;2023-12-22T08:59:06;11.93;;;5.35;;
74213;SDS011;62576;55.694;37.494;2023-12-22T09:01:38;11.07;;;5.07;;
74213;SDS011;62576;55.694;37.494;2023-12-22T09:04:09;12.95;;;6.07;;
74213;SDS011;62576;55.694;37.494;2023-12-22T09:06:39;12.43;;;5.70;;
74213;SDS011;62576;55.694;37.494;2023-12-22T09:09:10;11.93;;;5.25;;
74213;SDS011;62576;55.694;37.494;2023-12-22T09:11:40;13.18;;;5.45;;
74213;SDS011;62576;55.694;37.494;2023-12-22T09:14:10;13.20;;;4.88;;
74213;SDS011;62576;55.694;37.494;2023-12-22T09:16:41;11.38;;;4.97;;
74213;SDS011;62576;55.694;37.494;2023-12-22T09:21:43;13.55;;;5.63;;
74213;SDS011;62576;55.694;37.494;2023-12-22T09:24:13;12.13;;;5.43;;
74213;SDS011;62576;55.694;37.494;2023-12-22T09:26:43;13.52;;;6.15;;
74213;SDS011;62576;55.694;37.494;2023-12-22T09:29:12;13.52;;;6.22;;
74213;SDS011;62576;55.694;37.494;2023-12-22T09:31:44;15.45;;;6.30;;
74213;SDS011;62576;55.694;37.494;2023-12-22T09:34:13;15.90;;;7.07;;
74213;SDS011;62576;55.694;37.494;2023-12-22T09:36:43;15.23;;;7.10;;
74213;SDS011;62576;55.694;37.494;2023-12-22T09:39:13;17.88;;;7.78;;
74213;SDS011;62576;55.694;37.494;2023-12-22T09:41:46;17.33;;;8.35;;
74213;SDS011;62576;55.694;37.494;2023-12-22T09:44:19;15.18;;;7.45;;
74213;SDS011;62576;55.694;37.494;2023-12-22T09:46:51;15.85;;;8.18;;
74213;SDS011;62576;55.694;37.494;2023-12-22T09:49:21;14.48;;;6.93;;
74213;SDS011;62576;55.694;37.494;2023-12-22T09:51:51;16.60;;;7.40;;
74213;SDS011;62576;55.694;37.494;2023-12-22T09:54:22;17.77;;;7.78;;
74213;SDS011;62576;55.694;37.494;2023-12-22T09:56:54;17.65;;;7.78;;
74213;SDS011;62576;55.694;37.494;2023-12-22T09:59:24;19.05;;;7.95;;
74213;SDS011;62576;55.694;37.494;2023-12-22T10:01:56;21.38;;;9.00;;
74213;SDS011;62576;55.694;37.494;2023-12-22T10:04:27;16.88;;;7.20;;
74213;SDS011;62576;55.694;37.494;2023-12-22T10:06:57;14.60;;;7.05;;
74213;SDS011;62576;55.694;37.494;2023-12-22T10:09:29;12.90;;;5.82;;
74213;SDS011;62576;55.694;37.494;2023-12-22T10:11:58;16.58;;;7.00;;
74213;SDS011;62576;55.694;37.494;2023-12-22T10:14:30;16.75;;;7.82;;
74213;SDS011;62576;55.694;37.494;2023-12-22T10:17:01;17.90;;;7.80;;
74213;SDS011;62576;55.694;37.494;2023-12-22T10:19:31;15.00;;;7.05;;
74213;SDS011;62576;55.694;37.494;2023-12-22T10:22:01;16.67;;;7.43;;
74213;SDS011;62576;55.694;37.494;2023-12-22T10:24:38;18.45;;;8.40;;
74213;SDS011;62576;55.694;37.494;2023-12-22T10:27:10;21.30;;;8.95;;
74213;SDS011;62576;55.694;37.494;2023-12-22T10:29:40;18.13;;;8.13;;
74213;SDS011;62576;55.694;37.494;2023-12-22T10:32:11;19.50;;;7.70;;
74213;SDS011;62576;55.694;37.494;2023-12-22T10:34:42;20.90;;;8.48;;
74213;SDS011;62576;55.694;37.494;2023-12-22T10:37:11;20.38;;;8.80;;
74213;SDS011;62576;55.694;37.494;2023-12-22T10:39:42;18.45;;;8.05;;
74213;SDS011;62576;55.694;37.494;2023-12-22T10:42:12;23.90;;;9.00;;
74213;SDS011;62576;55.694;37.494;2023-12-22T10:44:42;18.95;;;8.05;;
74213;SDS011;62576;55.694;37.494;2023-12-22T10:47:13;20.50;;;7.88;;
74213;SDS011;62576;55.694;37.494;2023-12-22T10:49:43;21.48;;;9.20;;
74213;SDS011;62576;55.694;37.494;2023-12-22T10:52:15;23.08;;;8.75;;
74213;SDS011;62576;55.694;37.494;2023-12-22T10:54:46;19.67;;;8.23;;
74213;SDS011;62576;55.694;37.494;2023-12-22T10:57:17;18.42;;;8.00;;
74213;SDS011;62576;55.694;37.494;2023-12-22T10:59:47;16.45;;;7.07;;
74213;SDS011;62576;55.694;37.494;2023-12-22T11:02:18;20.70;;;7.78;;
74213;SDS011;62576;55.694;37.494;2023-12-22T11:04:51;15.48;;;6.38;;
74213;SDS011;62576;55.694;37.494;2023-12-22T11:07:25;15.80;;;6.75;;
74213;SDS011;62576;55.694;37.494;2023-12-22T11:09:56;16.27;;;6.95;;
74213;SDS011;62576;55.694;37.494;2023-12-22T11:12:26;17.15;;;7.07;;
74213;SDS011;62576;55.694;37.494;2023-12-22T11:14:56;16.70;;;7.25;;
74213;SDS011;62576;55.694;37.494;2023-12-22T11:17:28;19.20;;;6.85;;
74213;SDS011;62576;55.694;37.494;2023-12-22T11:20:00;18.70;;;7.10;;
74213;SDS011;62576;55.694;37.494;2023-12-22T11:22:30;16.52;;;7.32;;
74213;SDS011;62576;55.694;37.494;2023-12-22T11:25:01;16.20;;;6.78;;
74213;SDS011;62576;55.694;37.494;2023-12-22T11:27:33;10.70;;;4.60;;
74213;SDS011;62576;55.694;37.494;2023-12-22T11:30:03;16.63;;;6.88;;
74213;SDS011;62576;55.694;37.494;2023-12-22T11:32:38;17.90;;;7.20;;
74213;SDS011;62576;55.694;37.494;2023-12-22T11:35:06;14.75;;;6.30;;
74213;SDS011;62576;55.694;37.494;2023-12-22T11:37:37;16.23;;;6.57;;
74213;SDS011;62576;55.694;37.494;2023-12-22T11:40:07;14.32;;;6.70;;
74213;SDS011;62576;55.694;37.494;2023-12-22T11:42:38;16.52;;;6.70;;
74213;SDS011;62576;55.694;37.494;2023-12-22T11:47:45;16.65;;;6.38;;
74213;SDS011;62576;55.694;37.494;2023-12-22T11:50:26;12.75;;;5.30;;
74213;SDS011;62576;55.694;37.494;2023-12-22T11:52:57;15.48;;;6.10;;
74213;SDS011;62576;55.694;37.494;2023-12-22T11:55:55;14.13;;;6.28;;
74213;SDS011;62576;55.694;37.494;2023-12-22T11:58:38;15.32;;;6.72;;
74213;SDS011;62576;55.694;37.494;2023-12-22T12:01:08;16.00;;;6.40;;
74213;SDS011;62576;55.694;37.494;2023-12-22T12:03:42;16.85;;;6.18;;
74213;SDS011;62576;55.694;37.494;2023-12-22T12:06:17;14.88;;;6.05;;
74213;SDS011;62576;55.694;37.494;2023-12-22T12:08:50;15.05;;;5.88;;
74213;SDS011;62576;55.694;37.494;2023-12-22T12:11:21;14.93;;;6.18;;
74213;SDS011;62576;55.694;37.494;2023-12-22T12:13:51;14.32;;;5.93;;
74213;SDS011;62576;55.694;37.494;2023-12-22T12:16:21;14.23;;;6.13;;
74213;SDS011;62576;55.694;37.494;2023-12-22T12:18:53;15.35;;;6.28;;
74213;SDS011;62576;55.694;37.494;2023-12-22T12:21:22;8.10;;;3.90;;
74213;SDS011;62576;55.694;37.494;2023-12-22T12:23:52;11.35;;;5.40;;
74213;SDS011;62576;55.694;37.494;2023-12-22T12:26:22;16.02;;;6.15;;
74213;SDS011;62576;55.694;37.494;2023-12-22T12:28:53;12.38;;;4.28;;
74213;SDS011;62576;55.694;37.494;2023-12-22T12:31:35;11.80;;;4.90;;
74213;SDS011;62576;55.694;37.494;2023-12-22T12:34:04;13.38;;;5.03;;
74213;SDS011;62576;55.694;37.494;2023-12-22T12:36:34;13.18;;;5.75;;
74213;SDS011;62576;55.694;37.494;2023-12-22T12:39:05;14.38;;;5.80;;
74213;SDS011;62576;55.694;37.494;2023-12-22T12:41:38;14.20;;;6.15;;
74213;SDS011;62576;55.694;37.494;2023-12-22T12:44:09;15.90;;;6.07;;
74213;SDS011;62576;55.694;37.494;2023-12-22T12:46:40;13.43;;;6.00;;
74213;SDS011;62576;55.694;37.494;2023-12-22T12:49:12;12.77;;;5.43;;
74213;SDS011;62576;55.694;37.494;2023-12-22T12:51:43;10.18;;;4.45;;
74213;SDS011;62576;55.694;37.494;2023-12-22T12:54:13;14.32;;;5.65;;
74213;SDS011;62576;55.694;37.494;2023-12-22T12:56:44;11.80;;;5.07;;
74213;SDS011;62576;55.694;37.494;2023-12-22T12:59:15;12.63;;;5.65;;
74213;SDS011;62576;55.694;37.494;2023-12-22T13:01:46;13.55;;;5.40;;
74213;SDS011;62576;55.694;37.494;2023-12-22T13:04:17;14.88;;;5.57;;
74213;SDS011;62576;55.694;37.494;2023-12-22T13:06:48;11.90;;;4.80;;
74213;SDS011;62576;55.694;37.494;2023-12-22T13:09:18;12.55;;;5.35;;
74213;SDS011;62576;55.694;37.494;2023-12-22T13:11:47;12.93;;;5.45;;
74213;SDS011;62576;55.694;37.494;2023-12-22T13:14:21;12.77;;;5.88;;
74213;SDS011;62576;55.694;37.494;2023-12-22T13:19:23;15.55;;;5.35;;
74213;SDS011;62576;55.694;37.494;2023-12-22T13:21:53;15.10;;;5.75;;
74213;SDS011;62576;55.694;37.494;2023-12-22T13:24:24;13.23;;;5.07;;
74213;SDS011;62576;55.694;37.494;2023-12-22T13:26:58;12.43;;;5.20;;
74213;SDS011;62576;55.694;37.494;2023-12-22T13:29:29;13.18;;;6.10;;
74213;SDS011;62576;55.694;37.494;2023-12-22T13:31:58;17.67;;;6.75;;
74213;SDS011;62576;55.694;37.494;2023-12-22T13:34:30;12.68;;;5.68;;
74213;SDS011;62576;55.694;37.494;2023-12-22T13:37:02;14.13;;;5.78;;
74213;SDS011;62576;55.694;37.494;2023-12-22T13:39:32;15.07;;;5.90;;
74213;SDS011;62576;55.694;37.494;2023-12-22T13:42:02;20.02;;;7.20;;
74213;SDS011;62576;55.694;37.494;2023-12-22T13:44:31;13.20;;;5.93;;
74213;SDS011;62576;55.694;37.494;2023-12-22T13:47:02;12.13;;;5.22;;
74213;SDS011;62576;55.694;37.494;2023-12-22T13:49:34;13.05;;;5.03;;
74213;SDS011;62576;55.694;37.494;2023-12-22T13:52:04;12.88;;;5.57;;
74213;SDS011;62576;55.694;37.494;2023-12-22T13:54:35;17.08;;;6.55;;
74213;SDS011;62576;55.694;37.494;2023-12-22T13:57:05;16.90;;;6.57;;
74213;SDS011;62576;55.694;37.494;2023-12-22T13:59:35;15.70;;;6.53;;
74213;SDS011;62576;55.694;37.494;2023-12-22T14:02:05;15.48;;;6.47;;
74213;SDS011;62576;55.694;37.494;2023-12-22T14:04:36;15.57;;;6.30;;
74213;SDS011;62576;55.694;37.494;2023-12-22T14:07:06;17.17;;;6.82;;
74213;SDS011;62576;55.694;37.494;2023-12-22T14:09:36;15.68;;;6.68;;
74213;SDS011;62576;55.694;37.494;2023-12-22T14:12:06;16.30;;;6.30;;
74213;SDS011;62576;55.694;37.494;2023-12-22T14:14:36;16.35;;;6.38;;
74213;SDS011;62576;55.694;37.494;2023-12-22T14:17:06;19.33;;;6.22;;
74213;SDS011;62576;55.694;37.494;2023-12-22T14:19:37;11.60;;;4.70;;
74213;SDS011;62576;55.694;37.494;2023-12-22T14:22:07;15.63;;;6.53;;
74213;SDS011;62576;55.694;37.494;2023-12-22T14:24:37;16.38;;;6.55;;
74213;SDS011;62576;55.694;37.494;2023-12-22T14:27:06;12.55;;;5.70;;
74213;SDS011;62576;55.694;37.494;2023-12-22T14:29:37;14.75;;;5.68;;
74213;SDS011;62576;55.694;37.494;2023-12-22T14:32:08;13.43;;;6.03;;
74213;SDS011;62576;55.694;37.494;2023-12-22T14:34:40;14.30;;;5.95;;
74213;SDS011;62576;55.694;37.494;2023-12-22T14:37:10;13.73;;;5.30;;
74213;SDS011;62576;55.694;37.494;2023-12-22T14:39:42;15.07;;;5.97;;
74213;SDS011;62576;55.694;37.494;2023-12-22T14:42:11;13.75;;;5.80;;
74213;SDS011;62576;55.694;37.494;2023-12-22T14:44:41;15.52;;;5.95;;
74213;SDS011;62576;55.694;37.494;2023-12-22T14:47:11;14.98;;;5.60;;
74213;SDS011;62576;55.694;37.494;2023-12-22T14:49:43;15.85;;;6.50;;